Terminal Aerodrome Forecast
Issued by NWS Paducah, KY

Home | Current Version | Previous Version | Text Only | Print | Product List | Glossary On
Versions: 1 2 3 4 5 6 7 8 9 10 11 12 13 14 15 16 17 18 19 20 21
000
FTUS43 KPAH 180500
TAFEVV
TAF
KEVV 180529Z 1806/1906 02005KT P6SM SCT060 OVC090
     FM180900 VRB02KT P6SM SCT030 OVC060
     FM181300 VRB03KT 5SM BR SCT015 OVC030
      TEMPO 1813/1817 4SM -SN BKN015
     FM182300 32002KT P6SM OVC070=

USA.gov is the U.S. government's official web portal to all federal, state and local government web resources and services.